Time;durP1;ratioP1;P1;durP2;ratioP2;P2;SDS_P1;SDS_P2;PMS_P1;PMS_P2;Temp;Humidity;BMP_temperature;BMP_pressure;BME280_temperature;BME280_humidity;BME280_pressure;Samples;Min_cycle;Max_cycle;Signal;HPM_P1;HPM_P2
2022/11/13 00:02:44;;;;;;;21.80;10.95;;;8.40;80.90;;;;;;9176503;19;20014;-65
2022/11/13 00:06:07;;;;;;;14.95;9.65;;;8.50;81.00;;;;;;9171703;19;20133;-64
2022/11/13 00:09:31;;;;;;;18.33;10.27;;;8.50;81.00;;;;;;9176645;19;20015;-64
2022/11/13 00:12:54;;;;;;;19.88;9.38;;;8.40;81.00;;;;;;9176410;19;20010;-65
2022/11/13 00:16:19;;;;;;;20.27;10.13;;;8.40;81.00;;;;;;9176848;19;20041;-66
2022/11/13 00:19:41;;;;;;;15.25;9.05;;;8.40;80.90;;;;;;9175242;19;20010;-64
2022/11/13 00:23:03;;;;;;;17.25;8.82;;;8.40;81.00;;;;;;9176616;19;20018;-65
2022/11/13 00:26:30;;;;;;;16.33;9.55;;;8.40;81.00;;;;;;9173092;19;20015;-64
2022/11/13 00:29:53;;;;;;;15.68;8.65;;;8.40;81.00;;;;;;9176059;19;20022;-64
2022/11/13 00:33:15;;;;;;;15.15;9.13;;;8.40;81.00;;;;;;9174403;19;20468;-64
2022/11/13 00:36:57;;;;;;;19.05;9.27;;;8.40;81.00;;;;;;9175546;19;20019;-64
2022/11/13 00:40:20;;;;;;;17.58;9.23;;;8.40;81.00;;;;;;9174919;19;20102;-66
2022/11/13 00:43:44;;;;;;;14.57;8.88;;;8.40;81.10;;;;;;9175987;19;20026;-65
2022/11/13 00:47:07;;;;;;;20.90;9.13;;;8.30;81.10;;;;;;9174734;19;20014;-66
2022/11/13 00:50:30;;;;;;;15.57;8.65;;;8.30;81.00;;;;;;9175254;19;20484;-65
2022/11/13 00:53:53;;;;;;;19.38;10.45;;;8.40;81.10;;;;;;9169008;19;20026;-66
2022/11/13 00:57:15;;;;;;;16.27;9.10;;;8.40;81.10;;;;;;9172579;19;20052;-65
2022/11/13 01:00:39;;;;;;;14.25;8.45;;;8.30;81.00;;;;;;9174400;19;20042;-64
2022/11/13 01:04:02;;;;;;;16.67;9.23;;;8.30;81.10;;;;;;9174413;19;20078;-65
2022/11/13 01:07:24;;;;;;;13.52;8.13;;;8.30;81.10;;;;;;9172824;19;20030;-67
2022/11/13 01:10:49;;;;;;;15.27;8.65;;;8.30;81.10;;;;;;9172328;19;20360;-64
2022/11/13 01:14:15;;;;;;;18.13;9.13;;;8.30;81.10;;;;;;9174096;19;20037;-64
2022/11/13 01:17:39;;;;;;;18.35;9.32;;;8.20;81.10;;;;;;9180425;19;20025;-63
2022/11/13 01:21:07;;;;;;;15.82;9.02;;;8.20;81.10;;;;;;9182281;19;20391;-64
2022/11/13 01:24:29;;;;;;;17.27;9.38;;;8.20;81.80;;;;;;9179952;19;20349;-63
2022/11/13 01:27:51;;;;;;;17.25;9.18;;;8.20;81.10;;;;;;9180577;19;20022;-66
2022/11/13 01:31:15;;;;;;;18.58;9.07;;;8.20;81.20;;;;;;9181899;19;20856;-64
2022/11/13 01:34:39;;;;;;;;;;;8.20;81.20;;;;;;9183193;19;20467;-66
2022/11/13 01:38:01;;;;;;;15.13;8.70;;;8.10;81.10;;;;;;9182043;19;20346;-64
2022/11/13 01:41:27;;;;;;;14.25;8.30;;;8.10;81.00;;;;;;9179744;19;20022;-64
2022/11/13 01:44:51;;;;;;;15.60;8.63;;;8.10;81.10;;;;;;9180490;19;20488;-66
2022/11/13 01:48:14;;;;;;;12.88;8.98;;;8.10;81.20;;;;;;9181275;19;20022;-65
2022/11/13 01:51:42;;;;;;;16.98;8.77;;;8.10;81.20;;;;;;9180821;19;20014;-66
2022/11/13 01:55:09;;;;;;;15.77;8.35;;;8.10;81.20;;;;;;9173922;19;20022;-66
2022/11/13 01:58:32;;;;;;;15.00;9.18;;;8.10;81.20;;;;;;9180557;19;20030;-64
2022/11/13 02:01:55;;;;;;;16.30;8.80;;;8.00;81.20;;;;;;9179672;19;20019;-64
2022/11/13 02:05:18;;;;;;;17.10;9.50;;;8.00;81.20;;;;;;9177719;19;20368;-64
2022/11/13 02:08:44;;;;;;;15.38;8.88;;;8.00;81.20;;;;;;9180632;19;20014;-64
2022/11/13 02:12:09;;;;;;;15.13;9.40;;;8.00;81.20;;;;;;9180129;19;20018;-64
2022/11/13 02:15:34;;;;;;;14.57;8.70;;;8.00;81.30;;;;;;9180367;19;20019;-63
2022/11/13 02:18:57;;;;;;;15.73;9.68;;;8.00;81.30;;;;;;9180657;19;20019;-64
2022/11/13 02:22:25;;;;;;;15.27;9.50;;;8.00;81.30;;;;;;9178119;19;20026;-64
2022/11/13 02:25:52;;;;;;;13.68;8.88;;;8.00;81.40;;;;;;9178069;19;20082;-63
2022/11/13 02:29:14;;;;;;;15.95;9.57;;;8.00;81.40;;;;;;9177352;19;20014;-65
2022/11/13 02:32:36;;;;;;;18.38;9.27;;;8.00;81.40;;;;;;9177544;19;20864;-65
2022/11/13 02:35:59;;;;;;;18.92;9.25;;;8.00;81.40;;;;;;9179939;19;20425;-65
2022/11/13 02:39:22;;;;;;;18.65;9.30;;;8.00;81.40;;;;;;9178477;19;20042;-69
2022/11/13 02:42:46;;;;;;;14.93;9.27;;;8.00;81.40;;;;;;9177320;19;20053;-65
2022/11/13 02:46:09;;;;;;;16.88;9.55;;;8.00;81.40;;;;;;9176434;19;20498;-64
2022/11/13 02:49:31;;;;;;;14.93;8.80;;;8.00;81.40;;;;;;9178837;19;20011;-64
2022/11/13 02:52:53;;;;;;;15.90;9.35;;;8.00;81.40;;;;;;9174545;19;20480;-62
2022/11/13 02:56:16;;;;;;;17.95;9.38;;;8.00;81.50;;;;;;9176327;19;20018;-66
2022/11/13 02:59:40;;;;;;;16.92;9.10;;;8.00;81.50;;;;;;9178351;19;20035;-63
2022/11/13 03:03:02;;;;;;;21.27;9.45;;;8.00;81.50;;;;;;9176340;19;20028;-63
2022/11/13 03:06:24;;;;;;;16.98;9.68;;;8.00;81.50;;;;;;9175404;19;20014;-66
2022/11/13 03:09:47;;;;;;;17.92;9.25;;;8.00;81.50;;;;;;9176207;19;20022;-66
2022/11/13 03:13:09;;;;;;;16.17;8.93;;;8.00;81.60;;;;;;9177976;19;20022;-64
2022/11/13 03:16:35;;;;;;;17.10;9.93;;;8.00;81.60;;;;;;9177689;19;20026;-66
2022/11/13 03:19:58;;;;;;;16.42;9.63;;;8.00;81.50;;;;;;9177331;19;20038;-66
2022/11/13 03:23:20;;;;;;;14.15;8.82;;;8.00;81.50;;;;;;9176722;19;20491;-66
2022/11/13 03:26:42;;;;;;;15.10;8.90;;;8.00;81.60;;;;;;9174676;19;20029;-63
2022/11/13 03:30:06;;;;;;;14.95;8.57;;;8.00;81.60;;;;;;9178141;19;20476;-63
2022/11/13 03:33:30;;;;;;;17.53;9.60;;;8.00;81.50;;;;;;9177776;19;20026;-66
2022/11/13 03:36:52;;;;;;;;;;;8.00;81.50;;;;;;9178712;19;20019;-68
2022/11/13 03:40:14;;;;;;;14.40;8.48;;;8.00;81.50;;;;;;9177601;19;19922;-65
2022/11/13 03:43:37;;;;;;;20.58;9.38;;;8.10;81.50;;;;;;9178250;19;20006;-64
2022/11/13 03:47:00;;;;;;;16.58;8.95;;;8.00;81.50;;;;;;9172745;19;20124;-64
2022/11/13 03:50:24;;;;;;;22.35;9.00;;;8.00;81.50;;;;;;9174724;19;20023;-65
2022/11/13 03:53:47;;;;;;;14.68;8.50;;;8.00;81.50;;;;;;9170818;19;20029;-63
2022/11/13 03:57:09;;;;;;;15.95;8.20;;;8.00;81.50;;;;;;9177412;19;20021;-64
2022/11/13 04:00:31;;;;;;;13.95;8.30;;;8.00;81.50;;;;;;9175939;19;20022;-66
2022/11/13 04:03:53;;;;;;;13.32;7.63;;;8.00;81.50;;;;;;9177064;19;20022;-64
2022/11/13 04:07:18;;;;;;;14.60;8.80;;;8.00;81.50;;;;;;9171856;19;20018;-63
2022/11/13 04:10:41;;;;;;;14.20;9.13;;;8.00;81.50;;;;;;9174801;19;20022;-63
2022/11/13 04:14:03;;;;;;;15.30;8.38;;;8.00;81.50;;;;;;9174769;19;20408;-65
2022/11/13 04:17:25;;;;;;;16.23;8.65;;;8.00;81.50;;;;;;9176093;19;20114;-64
2022/11/13 04:20:47;;;;;;;13.02;7.68;;;8.00;81.50;;;;;;9175783;19;20038;-64
2022/11/13 04:24:12;;;;;;;13.38;7.85;;;8.00;81.50;;;;;;9174003;19;20039;-64
2022/11/13 04:27:34;;;;;;;20.58;8.52;;;8.00;81.50;;;;;;9175234;19;20075;-66
2022/11/13 04:30:57;;;;;;;13.40;8.02;;;8.00;81.50;;;;;;9174233;19;20018;-65
2022/11/13 04:34:19;;;;;;;15.30;8.30;;;8.00;81.50;;;;;;9173286;19;20500;-65
2022/11/13 04:37:41;;;;;;;15.10;7.57;;;8.00;81.50;;;;;;9173853;19;20018;-64
2022/11/13 04:44:41;;;;;;;14.73;8.68;;;7.90;81.40;;;;;;9174018;19;20011;-64
2022/11/13 04:48:03;;;;;;;14.90;7.32;;;7.90;81.50;;;;;;9173502;19;20527;-63
2022/11/13 04:51:25;;;;;;;12.90;7.10;;;7.90;81.70;;;;;;9176201;19;20056;-64
2022/11/13 04:54:48;;;;;;;17.27;7.47;;;7.90;81.50;;;;;;9176600;19;20014;-63
2022/11/13 04:58:12;;;;;;;13.40;7.15;;;7.80;81.40;;;;;;9182320;19;20014;-63
2022/11/13 05:01:36;;;;;;;11.82;7.35;;;7.80;81.50;;;;;;9180984;19;20471;-64
2022/11/13 05:04:59;;;;;;;18.67;7.72;;;7.80;81.50;;;;;;9181712;19;20018;-62
2022/11/13 05:08:27;;;;;;;12.40;6.50;;;7.80;81.40;;;;;;9180898;19;20738;-62
2022/11/13 05:11:49;;;;;;;15.30;8.27;;;7.70;81.40;;;;;;9182422;19;20026;-64
2022/11/13 05:15:14;;;;;;;14.98;7.68;;;7.70;81.40;;;;;;9181724;19;20010;-63
2022/11/13 05:18:38;;;;;;;11.20;7.53;;;7.70;81.40;;;;;;9181837;19;20348;-65
2022/11/13 05:22:00;;;;;;;12.43;7.00;;;7.70;81.40;;;;;;9181858;19;20022;-65
2022/11/13 05:25:22;;;;;;;15.02;7.57;;;7.60;81.40;;;;;;9180917;19;20368;-67
2022/11/13 05:28:45;;;;;;;12.65;7.63;;;7.60;81.40;;;;;;9181035;19;20034;-62
2022/11/13 05:32:09;;;;;;;13.82;7.60;;;7.60;81.30;;;;;;9181350;19;20035;-63
2022/11/13 05:35:31;;;;;;;18.20;7.50;;;7.50;81.30;;;;;;9179735;19;20006;-62
2022/11/13 05:38:53;;;;;;;12.88;8.00;;;7.50;81.30;;;;;;9180546;19;20014;-64
2022/11/13 05:42:16;;;;;;;13.30;8.13;;;7.50;81.40;;;;;;9181441;19;20028;-65
2022/11/13 05:45:38;;;;;;;13.52;7.55;;;7.50;81.40;;;;;;9178045;19;20022;-65
2022/11/13 05:49:03;;;;;;;14.05;7.95;;;7.50;81.40;;;;;;9181238;19;20019;-65
2022/11/13 05:52:26;;;;;;;14.57;8.15;;;7.40;81.30;;;;;;9181087;19;20022;-64
2022/11/13 05:55:48;;;;;;;17.35;8.82;;;7.50;81.40;;;;;;9173214;19;20022;-66
2022/11/13 05:59:10;;;;;;;16.65;8.77;;;7.60;81.50;;;;;;9178463;19;20134;-64
2022/11/13 06:02:32;;;;;;;16.40;9.80;;;7.40;81.40;;;;;;9177053;19;20452;-66
2022/11/13 06:05:56;;;;;;;21.60;9.60;;;7.40;81.40;;;;;;9179335;19;20026;-64
2022/11/13 06:09:19;;;;;;;16.95;9.27;;;7.40;81.50;;;;;;9180371;19;20018;-64
2022/11/13 06:12:41;;;;;;;14.68;8.98;;;7.30;81.40;;;;;;9180814;19;20019;-65
2022/11/13 06:16:05;;;;;;;20.70;9.45;;;7.40;81.50;;;;;;9180623;19;20022;-63
2022/11/13 06:19:28;;;;;;;15.68;9.93;;;7.40;81.50;;;;;;9178702;19;20026;-66
2022/11/13 06:22:52;;;;;;;17.77;9.55;;;7.30;81.40;;;;;;9180034;19;20022;-65
2022/11/13 06:26:18;;;;;;;20.05;10.75;;;7.30;81.40;;;;;;9179238;19;20582;-67
2022/11/13 06:29:40;;;;;;;16.42;9.48;;;7.30;81.50;;;;;;9180107;19;20023;-66
2022/11/13 06:33:02;;;;;;;17.77;9.93;;;7.30;81.50;;;;;;9179910;19;20014;-64
2022/11/13 06:36:27;;;;;;;19.75;10.32;;;7.30;81.50;;;;;;9179668;19;20021;-63
2022/11/13 06:39:51;;;;;;;;;;;7.30;81.60;;;;;;9180792;19;20480;-65
2022/11/13 06:43:13;;;;;;;16.88;9.68;;;7.30;81.50;;;;;;9179473;19;19946;-63
2022/11/13 06:46:35;;;;;;;15.52;9.90;;;7.30;81.50;;;;;;9177636;19;20095;-63
2022/11/13 06:49:58;;;;;;;17.17;10.40;;;7.20;81.50;;;;;;9179293;19;20018;-64
2022/11/13 06:53:20;;;;;;;15.02;9.77;;;7.20;81.50;;;;;;9173383;19;20022;-63
2022/11/13 06:56:45;;;;;;;19.67;10.27;;;7.20;81.50;;;;;;9178428;19;20082;-65
2022/11/13 07:00:09;;;;;;;16.25;10.27;;;7.20;81.50;;;;;;9179086;19;20033;-62
2022/11/13 07:03:31;;;;;;;17.60;10.98;;;7.20;81.60;;;;;;9178143;19;20393;-64
2022/11/13 07:06:54;;;;;;;18.58;10.18;;;7.20;81.60;;;;;;9176702;19;20472;-66
2022/11/13 07:10:16;;;;;;;19.95;10.25;;;7.20;81.70;;;;;;9178750;19;20018;-65
2022/11/13 07:13:41;;;;;;;15.43;9.85;;;7.20;82.30;;;;;;9177283;19;20466;-63
2022/11/13 07:17:04;;;;;;;20.58;10.93;;;7.20;81.60;;;;;;9176561;19;20074;-66
2022/11/13 07:20:32;;;;;;;19.48;10.30;;;7.20;81.70;;;;;;9177924;19;20018;-65
2022/11/13 07:23:54;;;;;;;15.10;9.52;;;7.20;82.30;;;;;;9177635;19;20025;-67
2022/11/13 07:27:16;;;;;;;16.00;10.07;;;7.20;81.60;;;;;;9174951;19;20022;-65
2022/11/13 07:30:40;;;;;;;15.38;9.75;;;7.20;81.60;;;;;;9177171;19;20896;-63
2022/11/13 07:34:02;;;;;;;19.92;10.32;;;7.20;81.70;;;;;;9177954;19;20557;-63
2022/11/13 07:37:25;;;;;;;18.90;9.80;;;7.20;81.70;;;;;;9175683;19;20014;-64
2022/11/13 07:40:48;;;;;;;14.95;9.52;;;7.20;81.70;;;;;;9177565;19;20472;-65
2022/11/13 07:44:10;;;;;;;17.00;9.73;;;7.20;81.70;;;;;;9175546;19;20388;-64
2022/11/13 07:47:39;;;;;;;14.50;9.18;;;7.20;81.70;;;;;;9172946;19;20011;-64
2022/11/13 07:51:03;;;;;;;17.02;8.70;;;7.20;81.70;;;;;;9174687;19;20463;-64
2022/11/13 07:54:25;;;;;;;13.63;8.77;;;7.20;81.80;;;;;;9170210;19;20022;-64
2022/11/13 07:57:47;;;;;;;14.75;10.00;;;7.20;81.80;;;;;;9176060;19;20337;-64
2022/11/13 08:01:10;;;;;;;15.57;9.77;;;7.20;81.80;;;;;;9175578;19;20014;-65
2022/11/13 08:04:35;;;;;;;14.73;9.57;;;7.20;81.80;;;;;;9176957;19;20468;-63
2022/11/13 08:07:57;;;;;;;15.55;9.85;;;7.20;81.80;;;;;;9173073;19;20356;-66
2022/11/13 08:11:19;;;;;;;14.38;8.98;;;7.20;81.80;;;;;;9169224;19;20042;-68
2022/11/13 08:14:42;;;;;;;14.02;9.27;;;7.20;81.90;;;;;;9167897;19;20367;-65
2022/11/13 08:18:06;;;;;;;16.75;9.55;;;7.20;81.90;;;;;;9171522;19;20758;-67
2022/11/13 08:21:30;;;;;;;17.80;9.53;;;7.20;81.90;;;;;;9169431;19;20034;-66
2022/11/13 08:24:53;;;;;;;;;;;7.20;81.90;;;;;;9168568;19;21075;-64
2022/11/13 08:28:16;;;;;;;15.48;8.45;;;7.30;82.00;;;;;;9177568;19;20007;-67
2022/11/13 08:31:38;;;;;;;16.42;9.68;;;7.30;81.90;;;;;;9172330;19;20026;-66
2022/11/13 08:35:00;;;;;;;18.65;10.68;;;7.30;82.00;;;;;;9177178;19;20011;-67
2022/11/13 08:38:25;;;;;;;17.00;9.43;;;7.40;82.10;;;;;;9177227;19;20048;-64
2022/11/13 08:41:48;;;;;;;15.50;9.38;;;7.40;82.10;;;;;;9174380;19;20090;-69
2022/11/13 08:45:11;;;;;;;21.00;10.00;;;7.40;82.10;;;;;;9177301;19;20011;-65
2022/11/13 08:48:33;;;;;;;17.08;9.73;;;7.50;82.10;;;;;;9172473;19;20023;-65
2022/11/13 08:51:55;;;;;;;15.70;9.90;;;7.60;82.10;;;;;;9179913;19;20107;-66
2022/11/13 08:55:19;;;;;;;16.95;10.85;;;7.60;82.70;;;;;;9170297;19;20373;-65
2022/11/13 08:58:41;;;;;;;21.25;11.55;;;7.70;82.20;;;;;;9177583;19;20007;-65
2022/11/13 09:02:04;;;;;;;17.95;10.25;;;7.70;82.10;;;;;;9181304;19;20037;-66
2022/11/13 09:05:27;;;;;;;14.10;9.77;;;7.80;82.20;;;;;;9181914;19;20014;-65
2022/11/13 09:08:49;;;;;;;17.67;9.60;;;7.90;82.20;;;;;;9182697;19;20022;-66
2022/11/13 09:12:13;;;;;;;18.58;9.43;;;7.90;82.20;;;;;;9182206;19;20042;-67
2022/11/13 09:15:35;;;;;;;13.18;8.05;;;8.00;82.20;;;;;;9182636;19;20011;-65
2022/11/13 09:18:57;;;;;;;12.73;7.95;;;8.10;82.20;;;;;;9182659;19;20361;-67
2022/11/13 09:22:19;;;;;;;13.10;7.68;;;8.10;82.20;;;;;;9182129;19;20015;-67
2022/11/13 09:25:42;;;;;;;14.65;8.25;;;8.30;82.20;;;;;;9179354;19;20018;-67
2022/11/13 09:29:06;;;;;;;16.13;8.82;;;8.30;82.10;;;;;;9180074;19;20030;-67
2022/11/13 09:32:28;;;;;;;11.55;7.82;;;8.50;82.20;;;;;;9181002;19;20037;-65
2022/11/13 09:35:51;;;;;;;14.15;8.38;;;8.60;82.20;;;;;;9182161;19;20014;-67
2022/11/13 09:39:13;;;;;;;16.63;9.43;;;8.80;82.30;;;;;;9173445;19;20086;-68
2022/11/13 09:42:40;;;;;;;13.75;8.32;;;9.00;82.50;;;;;;9170588;19;20022;-68
2022/11/13 09:46:12;;;;;;;14.73;9.43;;;9.30;82.60;;;;;;9172552;19;20681;-68
2022/11/13 09:49:42;;;;;;;9.98;7.22;;;9.50;82.60;;;;;;9171001;19;20025;-65
2022/11/13 09:53:06;;;;;;;11.55;7.38;;;9.80;82.60;;;;;;9168730;19;20019;-67
2022/11/13 09:56:31;;;;;;;13.10;7.53;;;10.10;82.50;;;;;;9171435;19;20580;-67
2022/11/13 09:59:58;;;;;;;15.63;7.07;;;10.40;82.30;;;;;;9172937;19;20376;-68
2022/11/13 10:03:36;;;;;;;14.63;6.70;;;10.70;82.10;;;;;;9170044;19;20490;-67
2022/11/13 10:07:29;;;;;;;12.50;6.93;;;10.90;81.70;;;;;;9172903;19;20105;-67
2022/11/13 10:11:00;;;;;;;12.38;6.53;;;11.20;81.50;;;;;;9173014;19;20014;-68
2022/11/13 10:14:27;;;;;;;10.82;7.53;;;11.50;81.50;;;;;;9173801;19;20015;-66
2022/11/13 10:17:54;;;;;;;10.20;6.65;;;11.60;81.30;;;;;;9172524;19;20788;-68
2022/11/13 10:21:30;;;;;;;15.77;6.95;;;11.80;81.00;;;;;;9173546;19;20010;-67
2022/11/13 10:24:58;;;;;;;12.43;6.60;;;12.00;80.80;;;;;;9170158;19;20019;-66
2022/11/13 10:28:22;;;;;;;8.40;5.72;;;12.10;80.60;;;;;;9171770;19;20032;-67
2022/11/13 10:32:18;;;;;;;8.03;5.90;;;12.30;80.50;;;;;;9175566;19;20026;-67
2022/11/13 10:35:48;;;;;;;10.25;6.50;;;12.40;80.30;;;;;;9174602;19;20018;-66
2022/11/13 10:39:13;;;;;;;9.43;6.25;;;12.60;80.30;;;;;;9168972;19;20469;-66
2022/11/13 10:42:40;;;;;;;12.23;6.40;;;12.70;80.10;;;;;;9171645;19;20478;-65
2022/11/13 10:46:05;;;;;;;11.18;5.85;;;12.90;80.00;;;;;;9171576;19;20011;-66
2022/11/13 10:49:29;;;;;;;9.98;5.50;;;13.00;79.80;;;;;;9167706;19;20518;-65
2022/11/13 10:52:54;;;;;;;9.40;5.72;;;13.10;79.60;;;;;;9165542;19;20010;-66
2022/11/13 10:56:28;;;;;;;8.27;5.55;;;13.30;79.40;;;;;;9171510;19;20625;-66
2022/11/13 10:59:50;;;;;;;8.77;5.43;;;13.50;79.10;;;;;;9175039;19;20598;-67
2022/11/13 11:03:18;;;;;;;8.23;5.85;;;13.60;79.00;;;;;;9177044;19;20361;-68
2022/11/13 11:06:42;;;;;;;11.23;6.00;;;13.70;78.80;;;;;;9176297;19;20019;-69
2022/11/13 11:10:32;;;;;;;8.32;5.15;;;13.90;78.70;;;;;;9176111;19;20011;-65
2022/11/13 11:14:05;;;;;;;8.50;5.07;;;14.00;78.40;;;;;;9178712;19;20015;-66
2022/11/13 11:17:37;;;;;;;7.40;5.47;;;14.20;78.00;;;;;;9178680;19;20049;-67
2022/11/13 11:21:02;;;;;;;11.25;5.80;;;14.30;77.90;;;;;;9178496;19;20033;-67
2022/11/13 11:24:27;;;;;;;9.82;5.93;;;14.40;77.90;;;;;;9177167;19;20011;-66
2022/11/13 11:27:55;;;;;;;11.73;6.00;;;14.40;77.60;;;;;;9174227;19;20022;-68
2022/11/13 11:31:25;;;;;;;10.30;5.70;;;14.50;77.40;;;;;;9177078;19;20368;-65
2022/11/13 11:34:54;;;;;;;11.00;5.80;;;14.60;77.20;;;;;;9177798;19;20023;-67
2022/11/13 11:38:26;;;;;;;8.15;5.40;;;14.60;77.00;;;;;;9175028;19;20014;-68
2022/11/13 11:41:55;;;;;;;8.13;4.47;;;14.60;76.80;;;;;;9176413;19;20006;-66
2022/11/13 11:45:28;;;;;;;6.55;4.63;;;14.50;76.70;;;;;;9177215;19;20019;-66
2022/11/13 11:49:00;;;;;;;6.97;4.68;;;14.50;76.50;;;;;;9176209;19;20019;-66
2022/11/13 11:52:40;;;;;;;8.43;4.63;;;14.50;76.50;;;;;;9177448;19;20014;-65
2022/11/13 11:56:19;;;;;;;8.38;5.00;;;14.50;76.40;;;;;;9173966;19;20018;-65
2022/11/13 11:59:57;;;;;;;9.25;5.05;;;14.50;76.40;;;;;;9176913;19;20078;-67
2022/11/13 12:03:41;;;;;;;9.35;5.07;;;14.40;76.30;;;;;;9177139;19;20014;-67
2022/11/13 12:07:18;;;;;;;8.70;4.97;;;14.40;76.30;;;;;;9172804;19;20014;-67
2022/11/13 12:10:47;;;;;;;8.73;4.97;;;14.40;76.30;;;;;;9166723;19;20432;-68
2022/11/13 12:14:19;;;;;;;9.32;5.07;;;14.40;77.00;;;;;;9168221;19;20026;-66
2022/11/13 12:17:52;;;;;;;11.70;5.40;;;14.30;76.30;;;;;;9165902;19;20006;-65
2022/11/13 12:21:23;;;;;;;7.45;4.85;;;14.30;76.10;;;;;;9166606;19;20022;-68
2022/11/13 12:25:09;;;;;;;8.88;6.18;;;14.30;76.00;;;;;;9164395;19;20022;-66
2022/11/13 12:28:39;;;;;;;9.95;5.80;;;14.30;75.80;;;;;;9170205;19;20022;-66
2022/11/13 12:32:17;;;;;;;9.35;6.10;;;14.30;76.00;;;;;;9165500;19;20018;-67
2022/11/13 12:35:40;;;;;;;8.85;5.75;;;14.30;75.90;;;;;;9168660;19;20014;-66
2022/11/13 12:39:08;;;;;;;9.07;5.88;;;14.30;76.00;;;;;;9172078;19;20025;-66
2022/11/13 12:42:36;;;;;;;8.98;5.68;;;14.30;75.90;;;;;;9175138;19;20014;-67
2022/11/13 12:46:06;;;;;;;11.00;5.93;;;14.30;75.80;;;;;;9173308;19;20031;-67
2022/11/13 12:49:33;;;;;;;7.75;5.25;;;14.30;75.80;;;;;;9174149;19;20366;-67
2022/11/13 12:53:05;;;;;;;8.70;5.60;;;14.30;75.80;;;;;;9169158;19;20495;-66
2022/11/13 12:56:33;;;;;;;10.63;6.82;;;14.30;75.70;;;;;;9174457;19;20100;-65
2022/11/13 12:59:59;;;;;;;8.73;5.43;;;14.30;75.70;;;;;;9174456;19;20022;-66
2022/11/13 13:03:38;;;;;;;10.80;6.00;;;14.30;75.70;;;;;;9173747;19;20385;-69
2022/11/13 13:07:13;;;;;;;8.63;5.35;;;14.30;75.60;;;;;;9170257;19;20551;-67
2022/11/13 13:10:44;;;;;;;9.27;5.43;;;14.30;75.60;;;;;;9173630;19;20018;-67
2022/11/13 13:14:26;;;;;;;8.90;5.72;;;14.40;75.60;;;;;;9177651;19;20019;-66
2022/11/13 13:18:01;;;;;;;7.30;4.70;;;14.40;75.50;;;;;;9180594;19;20018;-67
2022/11/13 13:21:24;;;;;;;7.28;3.90;;;14.40;75.60;;;;;;9181688;19;20014;-65
2022/11/13 13:24:46;;;;;;;6.82;4.63;;;14.40;75.50;;;;;;9181584;19;20022;-66
2022/11/13 13:28:20;;;;;;;6.68;4.05;;;14.50;75.50;;;;;;9178460;19;20099;-66
2022/11/13 13:31:50;;;;;;;7.88;4.28;;;14.50;75.30;;;;;;9181355;19;20018;-65
2022/11/13 13:35:18;;;;;;;6.55;4.53;;;14.40;75.40;;;;;;9182996;19;20015;-67
2022/11/13 13:38:47;;;;;;;6.63;4.18;;;14.50;75.30;;;;;;9181075;19;20018;-65
2022/11/13 13:42:27;;;;;;;6.35;3.63;;;14.50;75.30;;;;;;9179090;19;20018;-66
2022/11/13 13:46:08;;;;;;;5.90;4.18;;;14.50;75.20;;;;;;9180259;19;20476;-64
2022/11/13 13:49:30;;;;;;;4.72;3.85;;;14.50;75.10;;;;;;9181410;19;20014;-69
2022/11/13 13:52:57;;;;;;;5.53;3.80;;;14.50;75.20;;;;;;9175850;19;20029;-67
2022/11/13 13:56:21;;;;;;;5.47;3.40;;;14.50;75.00;;;;;;9181267;19;20364;-67
2022/11/13 13:59:45;;;;;;;7.23;3.77;;;14.50;75.00;;;;;;9180784;19;20010;-65
2022/11/13 14:03:20;;;;;;;4.97;3.38;;;14.50;74.90;;;;;;9179016;19;20026;-68
2022/11/13 14:06:50;;;;;;;8.70;3.55;;;14.50;74.70;;;;;;9177799;19;20103;-68
2022/11/13 14:10:19;;;;;;;5.05;3.65;;;14.50;74.70;;;;;;9180577;19;20483;-66
2022/11/13 14:13:42;;;;;;;6.38;3.45;;;14.50;74.60;;;;;;9180990;19;20369;-65
2022/11/13 14:17:05;;;;;;;6.60;3.33;;;14.60;74.70;;;;;;9181428;19;20018;-66
2022/11/13 14:20:28;;;;;;;7.70;3.17;;;14.60;74.60;;;;;;9178767;19;20102;-67
2022/11/13 14:23:52;;;;;;;4.57;3.50;;;14.50;74.50;;;;;;9177285;19;20499;-68
2022/11/13 14:27:23;;;;;;;9.82;3.50;;;14.60;74.40;;;;;;9179239;19;20021;-66
2022/11/13 14:30:54;;;;;;;5.30;3.22;;;14.50;74.20;;;;;;9178772;19;20018;-67
2022/11/13 14:34:24;;;;;;;7.28;3.45;;;14.60;74.30;;;;;;9180366;19;20022;-68
2022/11/13 14:37:47;;;;;;;5.78;3.30;;;14.50;74.00;;;;;;9180304;19;20014;-66
2022/11/13 14:41:20;;;;;;;5.43;3.33;;;14.50;74.10;;;;;;9180214;19;20015;-66
2022/11/13 14:44:44;;;;;;;4.78;2.63;;;14.50;73.80;;;;;;9180237;19;20050;-68
2022/11/13 14:48:20;;;;;;;6.45;3.33;;;14.50;73.80;;;;;;9176505;19;20092;-66
2022/11/13 14:51:43;;;;;;;4.38;2.60;;;14.50;73.50;;;;;;9178602;19;20476;-65
2022/11/13 14:55:07;;;;;;;4.07;2.72;;;14.50;73.70;;;;;;9169268;19;20144;-65
2022/11/13 14:58:42;;;;;;;6.60;2.90;;;14.50;73.60;;;;;;9179489;19;20011;-65
2022/11/13 15:02:06;;;;;;;4.68;2.65;;;14.50;73.40;;;;;;9178940;19;20013;-65
2022/11/13 15:05:30;;;;;;;4.05;2.58;;;14.50;73.40;;;;;;9177657;19;20057;-68
2022/11/13 15:08:58;;;;;;;3.97;2.60;;;14.40;73.20;;;;;;9179159;19;20022;-68
2022/11/13 15:12:20;;;;;;;6.90;2.67;;;14.40;73.00;;;;;;9171518;19;20022;-68
2022/11/13 15:15:42;;;;;;;5.30;2.60;;;14.40;73.10;;;;;;9170314;19;20014;-66
2022/11/13 15:19:12;;;;;;;4.70;2.97;;;14.30;73.00;;;;;;9168541;19;20070;-66
2022/11/13 15:22:37;;;;;;;4.50;2.88;;;14.30;72.80;;;;;;9170485;19;20801;-66
2022/11/13 15:25:59;;;;;;;5.13;2.63;;;14.30;73.50;;;;;;9166722;19;20022;-66
2022/11/13 15:29:21;;;;;;;5.93;3.50;;;14.20;72.80;;;;;;9169248;19;20022;-67
2022/11/13 15:32:48;;;;;;;3.60;2.97;;;14.20;72.80;;;;;;9166689;19;20773;-68
2022/11/13 15:36:12;;;;;;;7.85;3.90;;;14.20;72.80;;;;;;9169431;19;20026;-65
2022/11/13 15:39:36;;;;;;;7.63;3.63;;;14.00;72.70;;;;;;9168991;19;20018;-66
2022/11/13 15:43:00;;;;;;;4.38;3.30;;;14.00;72.80;;;;;;9171694;19;20018;-65
2022/11/13 15:46:25;;;;;;;8.20;5.57;;;14.00;72.90;;;;;;9167843;19;20018;-65
2022/11/13 15:49:47;;;;;;;19.83;4.88;;;13.90;72.80;;;;;;9170082;19;20011;-66
2022/11/13 15:53:34;;;;;;;;;;;13.90;72.90;;;;;;9166623;19;20039;-65
2022/11/13 15:56:56;;;;;;;7.43;4.03;;;13.80;73.00;;;;;;9169574;19;19943;-66
2022/11/13 16:00:23;;;;;;;6.03;3.78;;;13.70;73.10;;;;;;9169348;19;20475;-66
2022/11/13 16:03:46;;;;;;;9.15;4.78;;;13.70;73.00;;;;;;9168871;19;20022;-67
2022/11/13 16:07:15;;;;;;;9.05;4.40;;;13.60;72.90;;;;;;9169183;19;20112;-67
2022/11/13 16:10:40;;;;;;;6.85;4.55;;;13.50;72.80;;;;;;9168717;19;20018;-66
2022/11/13 16:14:02;;;;;;;7.88;5.10;;;13.40;72.80;;;;;;9170317;19;20047;-66
2022/11/13 16:17:24;;;;;;;10.90;4.53;;;13.40;72.90;;;;;;9168088;19;20029;-68
2022/11/13 16:20:46;;;;;;;7.45;5.00;;;13.30;72.90;;;;;;9168008;19;20014;-66
2022/11/13 16:24:11;;;;;;;11.07;5.78;;;13.20;72.90;;;;;;9167288;19;20668;-65
2022/11/13 16:27:37;;;;;;;9.35;6.03;;;13.10;72.80;;;;;;9166904;19;20025;-67
2022/11/13 16:30:59;;;;;;;9.85;5.70;;;13.10;72.90;;;;;;9168327;19;20022;-67
2022/11/13 16:34:22;;;;;;;11.18;5.65;;;13.00;72.90;;;;;;9169693;19;20022;-67
2022/11/13 16:37:44;;;;;;;14.00;6.85;;;12.90;73.00;;;;;;9168329;19;20022;-67
2022/11/13 16:41:07;;;;;;;11.98;6.68;;;12.80;72.90;;;;;;9167951;19;20010;-66
2022/11/13 16:44:31;;;;;;;9.43;5.93;;;12.80;73.00;;;;;;9167746;19;20046;-66
2022/11/13 16:47:53;;;;;;;12.65;7.05;;;12.70;73.00;;;;;;9170731;19;20372;-67
2022/11/13 16:51:15;;;;;;;15.52;7.30;;;12.60;73.00;;;;;;9177198;19;20006;-67
2022/11/13 16:54:37;;;;;;;11.73;7.00;;;12.50;73.00;;;;;;9169246;19;20018;-67
2022/11/13 16:58:00;;;;;;;13.90;6.43;;;12.50;73.10;;;;;;9173279;19;20014;-67
2022/11/13 17:01:24;;;;;;;14.75;7.10;;;12.40;73.00;;;;;;9174661;19;20014;-66
2022/11/13 17:04:47;;;;;;;10.50;6.55;;;12.30;73.10;;;;;;9177486;19;20340;-67
2022/11/13 17:08:13;;;;;;;11.35;6.57;;;12.20;73.20;;;;;;9174152;19;20015;-68
2022/11/13 17:11:36;;;;;;;15.30;6.85;;;12.10;73.10;;;;;;9175873;19;20123;-65
2022/11/13 17:14:58;;;;;;;10.48;6.38;;;12.10;73.20;;;;;;9176290;19;20646;-66
2022/11/13 17:18:23;;;;;;;12.82;7.40;;;12.10;73.30;;;;;;9173454;19;20018;-67
2022/11/13 17:21:45;;;;;;;;;;;12.00;73.30;;;;;;9176663;19;20011;-66
2022/11/13 17:25:08;;;;;;;13.18;6.75;;;11.90;73.40;;;;;;9175758;19;19926;-66
2022/11/13 17:28:30;;;;;;;13.70;7.15;;;11.90;73.40;;;;;;9173199;19;20019;-66
2022/11/13 17:31:52;;;;;;;14.18;6.82;;;11.80;73.40;;;;;;9174969;19;20020;-69
2022/11/13 17:35:17;;;;;;;15.60;7.30;;;11.70;73.50;;;;;;9173756;19;20014;-67
2022/11/13 17:38:39;;;;;;;;;;;11.70;73.50;;;;;;9177029;19;20021;-65
2022/11/13 17:42:02;;;;;;;11.43;7.25;;;11.60;73.60;;;;;;9173182;19;20345;-64
2022/11/13 17:45:24;;;;;;;18.20;6.90;;;11.60;73.60;;;;;;9174357;19;20490;-70
2022/11/13 17:48:46;;;;;;;13.80;7.72;;;11.50;73.60;;;;;;9170460;19;20015;-65
2022/11/13 17:52:11;;;;;;;15.30;7.85;;;11.50;73.60;;;;;;9173823;19;20011;-66